createdAt,value
2023-04-13T05:03:04.245Z,25.00
2023-04-13T05:04:04.227Z,25.00
2023-04-13T05:05:05.290Z,25.00
2023-04-13T05:06:05.268Z,25.00
2023-04-13T05:07:05.287Z,25.00
2023-04-13T05:08:04.370Z,25.00
2023-04-13T05:09:04.398Z,0.00
2023-04-13T05:10:05.365Z,0.00
2023-04-13T05:11:04.403Z,0.00
2023-04-13T05:12:04.475Z,0.00
2023-04-13T05:13:05.544Z,0.00
2023-04-13T05:14:05.575Z,0.00
2023-04-13T05:15:05.664Z,0.00
2023-04-13T05:16:05.778Z,0.00
2023-04-13T05:17:05.732Z,0.00
2023-04-13T05:18:04.852Z,0.00
2023-04-13T05:19:04.848Z,0.00
2023-04-13T05:20:05.903Z,0.00
2023-04-13T05:21:04.921Z,0.17
2023-04-13T05:22:05.962Z,24.48
2023-04-13T05:23:05.025Z,25.00
2023-04-13T05:24:06.051Z,27.18
2023-04-13T05:25:06.093Z,26.50
2023-04-13T05:26:06.133Z,25.00
2023-04-13T05:27:06.165Z,25.00
2023-04-13T05:28:05.201Z,26.96
2023-04-13T05:29:06.264Z,25.00
2023-04-13T05:30:05.416Z,25.00
2023-04-13T05:31:06.342Z,26.81
2023-04-13T05:32:05.463Z,25.46
2023-04-13T05:33:06.542Z,27.57
2023-04-13T05:34:05.456Z,25.16
2023-04-13T05:35:05.548Z,25.00
2023-04-13T05:36:05.557Z,26.77
2023-04-13T05:37:05.584Z,26.10
2023-04-13T05:38:05.619Z,25.20
2023-04-13T05:39:05.650Z,27.30
2023-04-13T05:40:05.693Z,27.66
2023-04-13T05:41:05.747Z,25.00
2023-04-13T05:42:06.775Z,28.82
2023-04-13T05:43:06.811Z,27.25
2023-04-13T05:44:06.863Z,24.62
2023-04-13T05:45:06.889Z,26.63
2023-04-13T05:46:06.981Z,28.93
2023-04-13T05:47:06.988Z,28.47
2023-04-13T05:48:06.107Z,34.91
2023-04-13T05:49:07.067Z,29.76
2023-04-13T05:50:07.109Z,30.29
2023-04-13T05:51:06.170Z,25.97
2023-04-13T05:52:06.189Z,26.33
2023-04-13T05:53:07.230Z,29.33
2023-04-13T05:54:07.290Z,30.39
2023-04-13T05:55:06.345Z,28.35
2023-04-13T05:56:07.370Z,27.27
2023-04-13T05:57:07.413Z,32.21
2023-04-13T05:58:07.462Z,29.43
2023-04-13T05:59:06.504Z,29.56
2023-04-13T06:00:06.836Z,27.54
2023-04-13T06:01:07.612Z,25.94
2023-04-13T06:02:06.716Z,30.06
2023-04-13T06:03:06.909Z,25.26
2023-04-13T06:04:07.099Z,28.48
2023-04-13T06:05:06.873Z,27.92
2023-04-13T06:06:07.876Z,32.56
2023-04-13T06:07:07.976Z,31.58
2023-04-13T06:08:06.973Z,34.16
2023-04-13T06:09:07.996Z,27.64
2023-04-13T06:10:08.029Z,30.82
2023-04-13T06:11:08.033Z,31.52
2023-04-13T06:12:07.024Z,34.38
2023-04-13T06:13:07.045Z,34.38
2023-04-13T06:14:08.034Z,34.32
2023-04-13T06:15:08.045Z,36.20
2023-04-13T06:16:08.020Z,37.21
2023-04-13T06:17:07.133Z,46.70
2023-04-13T06:18:08.101Z,54.51
2023-04-13T06:19:07.035Z,55.24
2023-04-13T06:20:08.049Z,56.37
2023-04-13T06:21:08.021Z,55.64
2023-04-13T06:22:08.067Z,51.69
2023-04-13T06:23:08.061Z,51.52
2023-04-13T06:24:08.040Z,46.65
2023-04-13T06:25:07.059Z,40.88
2023-04-13T06:26:08.080Z,44.26
2023-04-13T06:27:07.081Z,45.12
2023-04-13T06:28:08.079Z,40.94
2023-04-13T06:29:07.076Z,39.88
2023-04-13T06:30:08.130Z,40.04
2023-04-13T06:31:07.186Z,40.46
2023-04-13T06:32:07.168Z,39.30
2023-04-13T06:33:08.181Z,42.66
2023-04-13T06:34:07.211Z,41.80
2023-04-13T06:35:07.228Z,41.72
2023-04-13T06:36:07.231Z,39.60
2023-04-13T06:37:08.222Z,41.83
2023-04-13T06:38:08.233Z,39.25
2023-04-13T06:39:08.259Z,41.20
2023-04-13T06:40:07.260Z,41.76
2023-04-13T06:41:08.267Z,38.40
2023-04-13T06:42:08.256Z,40.50
2023-04-13T06:43:13.462Z,40.82
2023-04-13T06:44:08.263Z,41.04
2023-04-13T06:45:08.260Z,41.47
2023-04-13T06:46:08.295Z,42.04
2023-04-13T06:47:07.236Z,43.73
2023-04-13T06:48:07.270Z,46.88
2023-04-13T06:49:07.242Z,45.21
2023-04-13T06:50:07.234Z,47.50
2023-04-13T06:51:08.222Z,48.28
2023-04-13T06:52:08.211Z,50.50
2023-04-13T06:53:07.210Z,53.84
2023-04-13T06:54:08.205Z,57.57
2023-04-13T06:55:08.227Z,58.64
2023-04-13T06:56:07.192Z,55.82
2023-04-13T06:57:07.185Z,57.86
2023-04-13T06:58:07.183Z,61.02
2023-04-13T06:59:08.520Z,61.57
2023-04-13T07:00:15.407Z,61.82
2023-04-13T07:01:08.244Z,62.10
2023-04-13T07:02:07.177Z,62.80
2023-04-13T07:03:08.395Z,65.79
2023-04-13T07:04:08.269Z,66.48
2023-04-13T07:05:07.194Z,71.40
2023-04-13T07:06:07.152Z,70.48
2023-04-13T07:07:07.116Z,68.63
2023-04-13T07:08:07.122Z,67.73
2023-04-13T07:09:07.114Z,69.41
2023-04-13T07:10:07.088Z,71.28
2023-04-13T07:11:08.150Z,71.53
2023-04-13T07:12:08.086Z,73.54
2023-04-13T07:13:08.062Z,75.07
2023-04-13T07:14:08.063Z,72.03
2023-04-13T07:15:07.061Z,71.53
2023-04-13T07:16:07.069Z,73.74
2023-04-13T07:17:08.042Z,71.96
2023-04-13T07:18:07.031Z,75.09
2023-04-13T07:19:07.060Z,72.85
2023-04-13T07:20:08.020Z,74.90
2023-04-13T07:21:07.036Z,73.98
2023-04-13T07:22:08.002Z,72.06
2023-04-13T07:23:07.003Z,77.00
2023-04-13T07:24:07.005Z,76.51
2023-04-13T07:25:07.992Z,74.46
2023-04-13T07:26:06.993Z,75.62
2023-04-13T07:27:08.134Z,74.96
2023-04-13T07:28:06.963Z,74.49
2023-04-13T07:29:07.032Z,73.49
2023-04-13T07:30:07.956Z,73.65
2023-04-13T07:31:07.017Z,74.38
2023-04-13T07:32:07.938Z,74.27
2023-04-13T07:33:07.957Z,76.46
2023-04-13T07:34:06.949Z,78.43
2023-04-13T07:35:07.915Z,80.71
2023-04-13T07:36:07.919Z,85.20
2023-04-13T07:37:07.948Z,83.65
2023-04-13T07:38:07.893Z,83.08
2023-04-13T07:39:07.892Z,82.94
2023-04-13T07:40:07.870Z,80.39
2023-04-13T07:41:07.869Z,80.10
2023-04-13T07:42:07.860Z,83.82
2023-04-13T07:43:06.970Z,85.85
2023-04-13T07:44:06.858Z,89.91
2023-04-13T07:45:07.832Z,89.54
2023-04-13T07:46:06.873Z,92.20
2023-04-13T07:47:06.888Z,96.69
2023-04-13T07:48:07.849Z,96.79
2023-04-13T07:49:06.815Z,98.01
2023-04-13T07:50:06.801Z,99.06
2023-04-13T07:51:06.855Z,95.30
2023-04-13T07:52:06.791Z,101.22
2023-04-13T07:53:06.789Z,104.58
2023-04-13T07:54:07.846Z,104.58
2023-04-13T07:55:06.769Z,111.72
2023-04-13T07:56:07.762Z,111.90
2023-04-13T07:57:07.806Z,116.21
2023-04-13T07:58:07.751Z,114.14
2023-04-13T07:59:06.789Z,110.42
2023-04-13T08:00:07.729Z,107.48
2023-04-13T08:01:07.858Z,111.68
2023-04-13T08:02:06.744Z,108.17
2023-04-13T08:03:06.828Z,105.17
2023-04-13T08:04:06.857Z,99.31
2023-04-13T08:05:07.954Z,95.75
2023-04-13T08:06:07.761Z,88.53
2023-04-13T08:07:07.772Z,80.16
2023-04-13T08:08:07.837Z,77.05
2023-04-13T08:09:07.880Z,71.82
2023-04-13T08:10:06.970Z,66.36
2023-04-13T08:11:07.933Z,66.86
2023-04-13T08:12:07.942Z,64.72
2023-04-13T08:13:07.976Z,60.06
2023-04-13T08:14:07.988Z,59.45
2023-04-13T08:15:07.016Z,56.99
2023-04-13T08:16:08.066Z,54.94
2023-04-13T08:17:08.029Z,53.08
2023-04-13T08:18:06.996Z,48.06
2023-04-13T08:19:07.002Z,43.94
2023-04-13T08:20:08.033Z,43.47
2023-04-13T08:21:08.049Z,37.34
2023-04-13T08:22:08.043Z,37.39
2023-04-13T08:23:08.429Z,35.41
2023-04-13T08:24:08.047Z,33.78
2023-04-13T08:25:07.057Z,42.44
2023-04-13T08:26:08.162Z,36.07
2023-04-13T08:27:07.066Z,31.47
2023-04-13T08:28:08.071Z,31.01
2023-04-13T08:29:07.153Z,30.50
2023-04-13T08:30:07.118Z,27.35
2023-04-13T08:31:07.166Z,28.61
2023-04-13T08:32:08.254Z,26.56
2023-04-13T08:33:08.212Z,25.62
2023-04-13T08:34:08.244Z,28.42
2023-04-13T08:35:08.269Z,26.53
2023-04-13T08:36:08.303Z,25.29
2023-04-13T08:37:08.341Z,28.55
2023-04-13T08:38:08.389Z,27.42
2023-04-13T08:39:07.405Z,25.32
2023-04-13T08:40:08.406Z,26.88
2023-04-13T08:41:07.453Z,28.28
2023-04-13T08:42:08.085Z,26.24
2023-04-13T08:43:08.831Z,28.26
2023-04-13T08:44:08.515Z,25.78
2023-04-13T08:45:08.513Z,29.98
2023-04-13T08:46:08.595Z,37.11
2023-04-13T08:47:08.643Z,36.66
2023-04-13T08:48:07.619Z,35.24
2023-04-13T08:49:08.702Z,38.67
2023-04-13T08:50:08.577Z,37.59
2023-04-13T08:51:08.585Z,34.36
2023-04-13T08:52:08.582Z,35.54
2023-04-13T08:53:07.624Z,34.21
2023-04-13T08:54:08.592Z,33.50
2023-04-13T08:55:07.599Z,35.57
2023-04-13T08:56:08.604Z,33.08
2023-04-13T08:57:08.873Z,28.25
2023-04-13T08:58:08.646Z,29.24
2023-04-13T08:59:07.656Z,29.72
2023-04-13T09:00:09.134Z,29.93
2023-04-13T09:01:07.792Z,31.18
2023-04-13T09:02:08.808Z,29.96
2023-04-13T09:03:09.693Z,32.03
2023-04-13T09:04:08.839Z,28.98
2023-04-13T09:05:08.803Z,27.28
2023-04-13T09:06:08.668Z,22.30
2023-04-13T09:07:08.691Z,19.95
2023-04-13T09:08:08.657Z,18.29
2023-04-13T09:09:07.709Z,29.29
2023-04-13T09:10:07.669Z,25.77
2023-04-13T09:11:08.631Z,30.58
2023-04-13T09:12:07.661Z,28.51
2023-04-13T09:13:08.641Z,27.14
2023-04-13T09:14:07.624Z,25.57
2023-04-13T09:15:08.606Z,26.46
2023-04-13T09:16:08.593Z,30.60
2023-04-13T09:17:07.648Z,28.47
2023-04-13T09:18:08.617Z,30.23
2023-04-13T09:19:08.727Z,29.32
2023-04-13T09:20:08.675Z,30.53
2023-04-13T09:21:07.730Z,30.68
2023-04-13T09:22:08.786Z,28.66
2023-04-13T09:23:08.841Z,30.16
2023-04-13T09:24:07.892Z,30.90
2023-04-13T09:25:08.928Z,30.18
2023-04-13T09:26:09.017Z,31.08
2023-04-13T09:27:09.035Z,31.31
2023-04-13T09:28:09.076Z,32.11
2023-04-13T09:29:09.142Z,37.54
2023-04-13T09:30:08.189Z,35.37
2023-04-13T09:31:08.268Z,36.41
2023-04-13T09:32:08.291Z,36.50
2023-04-13T09:33:09.421Z,37.10
2023-04-13T09:34:09.366Z,39.26
2023-04-13T09:35:08.493Z,43.04
2023-04-13T09:36:09.477Z,44.50
2023-04-13T09:37:08.524Z,45.28
2023-04-13T09:38:09.555Z,45.24
2023-04-13T09:39:08.603Z,46.50
2023-04-13T09:40:08.625Z,43.74
2023-04-13T09:41:09.637Z,48.47
2023-04-13T09:42:08.715Z,47.83
2023-04-13T09:43:08.727Z,46.14
2023-04-13T09:44:09.762Z,41.31
2023-04-13T09:45:09.796Z,45.47
2023-04-13T09:46:09.874Z,45.77
2023-04-13T09:47:09.892Z,47.29
2023-04-13T09:48:09.857Z,45.27
2023-04-13T09:49:09.888Z,47.39
2023-04-13T09:50:09.890Z,46.58
2023-04-13T09:51:08.955Z,44.42
2023-04-13T09:52:10.402Z,49.56
2023-04-13T09:53:09.959Z,50.78
2023-04-13T09:54:10.010Z,53.48
2023-04-13T09:55:09.025Z,56.29
2023-04-13T09:56:09.085Z,56.20
2023-04-13T09:57:09.123Z,47.65
2023-04-13T09:58:09.171Z,49.46
2023-04-13T09:59:10.223Z,45.82
2023-04-13T10:00:09.275Z,46.25
2023-04-13T10:01:10.363Z,47.59
2023-04-13T10:02:09.516Z,44.00
2023-04-13T10:03:09.513Z,47.38
2023-04-13T10:04:09.448Z,45.12
2023-04-13T10:05:09.610Z,44.88
2023-04-13T10:06:09.521Z,45.10
2023-04-13T10:07:10.603Z,42.36
2023-04-13T10:08:09.587Z,40.49
2023-04-13T10:09:09.565Z,40.85
2023-04-13T10:10:10.592Z,37.00
2023-04-13T10:11:09.625Z,39.95
2023-04-13T10:12:10.663Z,44.16
2023-04-13T10:13:09.723Z,42.99
2023-04-13T10:14:09.743Z,43.95
2023-04-13T10:15:10.784Z,49.17
2023-04-13T10:16:10.863Z,44.46
2023-04-13T10:17:10.886Z,47.26
2023-04-13T10:18:11.061Z,46.87
2023-04-13T10:19:09.924Z,47.99
2023-04-13T10:20:09.955Z,44.47
2023-04-13T10:21:11.009Z,47.67
2023-04-13T10:22:11.083Z,48.80
2023-04-13T10:23:11.136Z,44.99
2023-04-13T10:24:11.980Z,49.73
2023-04-13T10:25:16.194Z,46.60
2023-04-13T10:26:11.217Z,46.89
2023-04-13T10:27:11.288Z,46.99
2023-04-13T10:28:10.196Z,45.25
2023-04-13T10:29:10.224Z,49.82
2023-04-13T10:30:11.182Z,53.48
2023-04-13T10:31:11.182Z,51.10
2023-04-13T10:32:11.195Z,49.18
2023-04-13T10:33:11.158Z,51.41
2023-04-13T10:34:11.150Z,54.48
2023-04-13T10:35:11.171Z,49.82
2023-04-13T10:36:10.214Z,50.52
2023-04-13T10:37:11.251Z,50.62
2023-04-13T10:38:11.287Z,49.54
2023-04-13T10:39:11.383Z,50.62
2023-04-13T10:40:11.334Z,54.29
2023-04-13T10:41:11.343Z,50.81
2023-04-13T10:42:11.417Z,52.72
2023-04-13T10:43:11.442Z,52.71
2023-04-13T10:44:11.463Z,49.84
2023-04-13T10:45:11.476Z,54.38
2023-04-13T10:46:11.464Z,54.45
2023-04-13T10:47:11.056Z,56.18
2023-04-13T10:48:11.562Z,58.58
2023-04-13T10:49:11.582Z,57.17
2023-04-13T10:50:10.583Z,57.78
2023-04-13T10:51:11.607Z,60.83
2023-04-13T10:52:11.659Z,58.02
2023-04-13T10:53:11.641Z,62.30
2023-04-13T10:54:10.682Z,59.43
2023-04-13T10:55:10.755Z,59.37
2023-04-13T10:56:11.711Z,59.16
2023-04-13T10:57:10.924Z,64.59
2023-04-13T10:58:10.693Z,58.76
2023-04-13T10:59:10.709Z,56.30
2023-04-13T11:00:11.693Z,61.16
2023-04-13T11:01:11.687Z,57.46
2023-04-13T11:02:10.743Z,63.26
2023-04-13T11:03:11.891Z,60.78
2023-04-13T11:05:10.685Z,62.11
2023-04-13T11:06:10.670Z,60.00
2023-04-13T11:07:11.685Z,61.16
2023-04-13T11:08:10.673Z,61.60
2023-04-13T11:09:13.757Z,62.29
2023-04-13T11:10:11.670Z,62.48
2023-04-13T11:11:14.885Z,62.38
2023-04-13T11:12:11.638Z,62.45
2023-04-13T11:13:10.696Z,62.69
2023-04-13T11:14:10.619Z,62.74
2023-04-13T11:15:11.629Z,61.98
2023-04-13T11:16:11.694Z,60.27
2023-04-13T11:17:11.716Z,62.78
2023-04-13T11:18:11.624Z,61.50
2023-04-13T11:19:10.589Z,60.21
2023-04-13T11:20:11.589Z,59.16
2023-04-13T11:21:11.583Z,62.30
2023-04-13T11:22:13.548Z,62.54
2023-04-13T11:23:11.579Z,62.65
2023-04-13T11:24:10.560Z,62.68
2023-04-13T11:25:10.558Z,62.21
2023-04-13T11:26:11.548Z,61.66
2023-04-13T11:27:11.557Z,62.20
2023-04-13T11:28:11.524Z,66.08
2023-04-13T11:29:11.531Z,63.59
2023-04-13T11:30:10.544Z,61.07
2023-04-13T11:31:10.515Z,63.28
2023-04-13T11:32:10.520Z,62.43
2023-04-13T11:33:11.530Z,61.94
2023-04-13T11:34:11.502Z,59.71
2023-04-13T11:35:11.481Z,62.65
2023-04-13T11:36:11.490Z,60.09
2023-04-13T11:37:11.930Z,57.25
2023-04-13T11:38:11.470Z,59.98
2023-04-13T11:39:11.471Z,60.38
2023-04-13T11:40:11.532Z,52.49
2023-04-13T11:41:16.899Z,46.30
2023-04-13T11:42:11.445Z,46.44
2023-04-13T11:43:11.475Z,42.39
2023-04-13T11:44:11.418Z,44.98
2023-04-13T11:45:10.418Z,39.69
2023-04-13T11:46:11.501Z,39.33
2023-04-13T11:47:11.417Z,37.17
2023-04-13T11:48:10.409Z,39.96
2023-04-13T11:49:11.400Z,38.51
2023-04-13T11:50:11.604Z,40.54
2023-04-13T11:51:10.355Z,36.90
2023-04-13T11:52:11.379Z,37.34
2023-04-13T11:53:10.369Z,41.28
2023-04-13T11:54:11.358Z,39.95
2023-04-13T11:55:21.408Z,38.75
2023-04-13T11:56:11.365Z,38.93
2023-04-13T11:57:11.324Z,38.94
2023-04-13T11:58:10.319Z,39.61
2023-04-13T11:59:11.337Z,38.42
2023-04-13T12:00:11.336Z,37.64
2023-04-13T12:01:14.248Z,42.08
2023-04-13T12:02:20.856Z,41.74
2023-04-13T12:03:27.954Z,42.30
2023-04-13T12:04:16.054Z,42.45
2023-04-13T12:05:11.477Z,42.68
2023-04-13T12:06:11.464Z,43.60
2023-04-13T12:07:11.566Z,44.63
2023-04-13T12:08:12.052Z,46.24
2023-04-13T12:09:14.664Z,48.19
2023-04-13T12:10:22.112Z,42.44
2023-04-13T12:12:46.218Z,42.47
2023-04-13T12:14:15.093Z,42.59
2023-04-13T12:15:22.908Z,42.68
2023-04-13T12:16:17.647Z,42.69
2023-04-13T12:17:26.178Z,42.81
2023-04-13T12:18:15.311Z,42.94
2023-04-13T12:19:13.697Z,42.92
2023-04-13T12:20:12.339Z,42.89
2023-04-13T12:21:11.233Z,45.17
2023-04-13T12:22:12.229Z,46.78
2023-04-13T12:23:21.877Z,49.21
2023-04-13T12:25:11.798Z,44.20
2023-04-13T12:27:18.310Z,42.57
2023-04-13T12:28:11.141Z,42.74
2023-04-13T12:29:11.128Z,45.03
2023-04-13T12:30:10.236Z,49.94
2023-04-13T12:31:11.201Z,52.26
2023-04-13T12:32:11.115Z,57.47
2023-04-13T12:33:10.113Z,58.06
2023-04-13T12:34:11.099Z,55.15
2023-04-13T12:35:11.091Z,54.10
2023-04-13T12:36:11.098Z,53.81
2023-04-13T12:37:10.167Z,50.63
2023-04-13T12:38:11.219Z,52.71
2023-04-13T12:39:11.271Z,55.79
2023-04-13T12:40:11.357Z,56.66
2023-04-13T12:41:11.419Z,52.10
2023-04-13T12:42:10.464Z,56.11
2023-04-13T12:43:10.522Z,54.72
2023-04-13T12:44:11.603Z,54.56
2023-04-13T12:45:11.662Z,57.87
2023-04-13T12:46:10.725Z,59.24
2023-04-13T12:47:11.913Z,57.40
2023-04-13T12:48:11.881Z,53.72
2023-04-13T12:49:11.941Z,56.13
2023-04-13T12:50:12.040Z,54.48
2023-04-13T12:51:12.060Z,55.43
2023-04-13T12:52:12.124Z,57.61
2023-04-13T12:53:11.190Z,55.73
2023-04-13T12:54:12.260Z,54.10
2023-04-13T12:55:12.321Z,59.24
2023-04-13T12:56:12.377Z,63.62
2023-04-13T12:57:12.441Z,61.74
2023-04-13T12:58:12.521Z,59.83
2023-04-13T12:59:12.565Z,60.88
2023-04-13T13:00:12.668Z,59.33
2023-04-13T13:01:11.747Z,61.72
2023-04-13T13:02:12.785Z,59.02
2023-04-13T13:03:14.543Z,59.14
2023-04-13T13:04:12.898Z,63.34
2023-04-13T13:05:12.795Z,60.81
2023-04-13T13:06:12.789Z,62.38
2023-04-13T13:07:12.787Z,60.37
2023-04-13T13:08:11.787Z,63.30
2023-04-13T13:09:12.797Z,56.37
2023-04-13T13:10:26.346Z,60.69
2023-04-13T13:11:12.757Z,60.93
2023-04-13T13:12:12.772Z,61.52
2023-04-13T13:13:11.747Z,61.45
2023-04-13T13:14:12.742Z,64.86
2023-04-13T13:15:11.736Z,76.79
2023-04-13T13:16:12.762Z,74.09
2023-04-13T13:17:12.704Z,72.72
2023-04-13T13:18:12.698Z,68.36
2023-04-13T13:19:12.713Z,72.46
2023-04-13T13:20:12.685Z,64.63
2023-04-13T13:21:12.696Z,63.31
2023-04-13T13:22:12.667Z,64.09
2023-04-13T13:23:13.441Z,70.45
2023-04-13T13:24:11.662Z,76.15
2023-04-13T13:25:11.683Z,76.23
2023-04-13T13:26:22.947Z,68.85
2023-04-13T13:27:48.396Z,68.93
2023-04-13T13:28:14.841Z,69.03
2023-04-13T13:29:11.620Z,69.14
2023-04-13T13:30:12.623Z,68.38
2023-04-13T13:31:12.600Z,63.11
2023-04-13T13:32:12.637Z,62.95
2023-04-13T13:33:12.779Z,68.89
2023-04-13T13:34:12.579Z,67.40
2023-04-13T13:35:12.627Z,68.20
2023-04-13T13:36:12.561Z,73.70
2023-04-13T13:37:11.555Z,72.07
2023-04-13T13:38:11.553Z,72.43
2023-04-13T13:39:11.567Z,72.24
2023-04-13T13:40:12.544Z,73.04
2023-04-13T13:41:12.553Z,72.96
2023-04-13T13:42:12.518Z,77.31
2023-04-13T13:43:12.532Z,75.50
2023-04-13T13:44:11.543Z,71.90
2023-04-13T13:45:12.512Z,73.81
2023-04-13T13:46:11.577Z,74.50
2023-04-13T13:47:11.510Z,73.04
2023-04-13T13:48:12.497Z,75.75
2023-04-13T13:49:11.480Z,73.39
2023-04-13T13:50:12.483Z,75.56
2023-04-13T13:51:11.487Z,79.28
2023-04-13T13:52:11.470Z,77.35
2023-04-13T13:53:12.481Z,76.12
2023-04-13T13:54:11.599Z,76.91
2023-04-13T13:55:11.585Z,82.36
2023-04-13T13:56:11.633Z,85.20
2023-04-13T13:57:12.697Z,82.11
2023-04-13T13:58:12.754Z,78.90
2023-04-13T13:59:11.852Z,78.88
2023-04-13T14:00:12.868Z,79.07
2023-04-13T14:01:11.932Z,81.20
2023-04-13T14:02:12.033Z,80.18
2023-04-13T14:03:12.235Z,84.89
2023-04-13T14:04:12.141Z,81.71
2023-04-13T14:05:12.138Z,81.95
2023-04-13T14:06:13.201Z,83.44
2023-04-13T14:07:13.252Z,79.18
2023-04-13T14:08:12.310Z,78.90
2023-04-13T14:09:13.343Z,78.24
2023-04-13T14:10:13.398Z,77.04
2023-04-13T14:11:13.472Z,75.50
2023-04-13T14:12:13.509Z,79.23
2023-04-13T14:13:13.560Z,76.29
2023-04-13T14:14:21.152Z,77.32
2023-04-13T14:15:13.612Z,77.48
2023-04-13T14:16:13.612Z,77.48
2023-04-13T14:17:13.613Z,78.08
2023-04-13T14:18:13.608Z,78.66
2023-04-13T14:19:12.580Z,77.90
2023-04-13T14:20:13.568Z,76.13
2023-04-13T14:21:12.551Z,77.44
2023-04-13T14:22:13.578Z,80.79
2023-04-13T14:23:13.557Z,78.32
2023-04-13T14:24:12.550Z,77.47
2023-04-13T14:25:13.538Z,77.00
2023-04-13T14:26:13.601Z,83.68
2023-04-13T14:27:13.643Z,81.77
2023-04-13T14:28:13.738Z,81.77
2023-04-13T14:29:13.758Z,80.32
2023-04-13T14:30:12.806Z,82.98
2023-04-13T14:31:13.880Z,83.95
2023-04-13T14:32:12.885Z,81.26
2023-04-13T14:33:13.950Z,80.89
2023-04-13T14:34:12.979Z,80.54
2023-04-13T14:35:13.009Z,85.52
2023-04-13T14:36:13.058Z,93.85
2023-04-13T14:37:13.125Z,92.87
2023-04-13T14:38:14.187Z,94.86
2023-04-13T14:39:14.185Z,53.96
2023-04-13T14:40:14.219Z,0.00
2023-04-13T14:41:13.253Z,0.00
2023-04-13T14:42:14.315Z,6.64
2023-04-13T14:43:14.324Z,26.37
2023-04-13T14:44:14.321Z,25.00
2023-04-13T14:45:14.375Z,95.29
2023-04-13T14:46:14.380Z,114.94
2023-04-13T14:47:14.512Z,123.82
2023-04-13T14:48:14.406Z,117.59
2023-04-13T14:49:14.506Z,114.54
2023-04-13T14:50:13.489Z,111.16
2023-04-13T14:51:14.527Z,110.04
2023-04-13T14:52:14.853Z,114.23
2023-04-13T14:53:13.595Z,112.43
2023-04-13T14:54:13.707Z,112.83
2023-04-13T14:55:14.641Z,117.06
2023-04-13T14:56:14.593Z,116.51
2023-04-13T14:57:14.653Z,121.57
2023-04-13T14:58:13.593Z,121.19
2023-04-13T14:59:13.611Z,123.32
2023-04-13T15:00:14.622Z,124.39
2023-04-13T15:01:13.678Z,124.80
2023-04-13T15:02:14.871Z,126.37
2023-04-13T15:03:15.259Z,124.32
2023-04-13T15:04:13.945Z,126.29
2023-04-13T15:05:15.024Z,126.52
2023-04-13T15:06:14.997Z,130.11
2023-04-13T15:07:14.153Z,130.97
2023-04-13T15:08:15.110Z,133.77
2023-04-13T15:09:15.197Z,135.21
2023-04-13T15:10:15.246Z,137.15
2023-04-13T15:11:14.311Z,136.43
2023-04-13T15:12:15.406Z,137.52
2023-04-13T15:13:14.488Z,139.54
2023-04-13T15:14:15.472Z,143.76
2023-04-13T15:15:15.531Z,148.48
2023-04-13T15:16:15.724Z,141.09
2023-04-13T15:17:15.674Z,147.91
2023-04-13T15:18:14.830Z,146.12
2023-04-13T15:19:14.781Z,145.31
2023-04-13T15:20:15.847Z,146.40
2023-04-13T15:21:14.912Z,146.21
2023-04-13T15:22:14.971Z,151.96
2023-04-13T15:23:15.989Z,154.13
2023-04-13T15:24:16.116Z,156.65
2023-04-13T15:25:15.168Z,157.11
2023-04-13T15:26:16.176Z,156.50
2023-04-13T15:27:16.276Z,159.27
2023-04-13T15:28:16.268Z,159.13
2023-04-13T15:29:15.289Z,164.92
